sensor_id;sensor_type;location;lat;lon;timestamp;pressure;altitude;pressure_sealevel;temperature;humidity
56392;BME280;42289;53.582;9.714;2022-10-16T00:01:06;101374.41;;;12.84;100.00
56392;BME280;42289;53.582;9.714;2022-10-16T00:03:33;101374.97;;;12.92;100.00
56392;BME280;42289;53.582;9.714;2022-10-16T00:06:00;101380.53;;;12.83;100.00
56392;BME280;42289;53.582;9.714;2022-10-16T00:08:28;101389.22;;;12.83;100.00
56392;BME280;42289;53.582;9.714;2022-10-16T00:10:58;101379.56;;;12.85;100.00
56392;BME280;42289;53.582;9.714;2022-10-16T00:13:25;101385.88;;;12.79;100.00
56392;BME280;42289;53.582;9.714;2022-10-16T00:15:55;101381.28;;;12.86;100.00
56392;BME280;42289;53.582;9.714;2022-10-16T00:18:21;101385.28;;;12.95;100.00
56392;BME280;42289;53.582;9.714;2022-10-16T00:20:48;101378.06;;;12.79;100.00
56392;BME280;42289;53.582;9.714;2022-10-16T00:23:14;101380.59;;;12.81;100.00
56392;BME280;42289;53.582;9.714;2022-10-16T00:25:41;101372.78;;;12.81;100.00
56392;BME280;42289;53.582;9.714;2022-10-16T00:28:07;101380.59;;;12.81;100.00
56392;BME280;42289;53.582;9.714;2022-10-16T00:30:33;101374.34;;;12.85;100.00
56392;BME280;42289;53.582;9.714;2022-10-16T00:33:04;101370.22;;;12.79;100.00
56392;BME280;42289;53.582;9.714;2022-10-16T00:35:31;101366.28;;;12.91;100.00
56392;BME280;42289;53.582;9.714;2022-10-16T00:37:57;101372.59;;;12.86;100.00
56392;BME280;42289;53.582;9.714;2022-10-16T00:40:24;101353.34;;;12.88;100.00
56392;BME280;42289;53.582;9.714;2022-10-16T00:42:50;101349.38;;;12.79;100.00
56392;BME280;42289;53.582;9.714;2022-10-16T00:45:17;101336.72;;;12.91;100.00
56392;BME280;42289;53.582;9.714;2022-10-16T00:47:45;101337.56;;;12.91;100.00
56392;BME280;42289;53.582;9.714;2022-10-16T00:50:22;101318.59;;;12.88;100.00
56392;BME280;42289;53.582;9.714;2022-10-16T00:52:51;101307.22;;;12.89;100.00
56392;BME280;42289;53.582;9.714;2022-10-16T00:55:18;101296.75;;;12.90;100.00
56392;BME280;42289;53.582;9.714;2022-10-16T00:57:45;101289.47;;;12.76;100.00
56392;BME280;42289;53.582;9.714;2022-10-16T01:00:15;101295.09;;;12.66;100.00
56392;BME280;42289;53.582;9.714;2022-10-16T01:02:42;101299.81;;;12.78;100.00
56392;BME280;42289;53.582;9.714;2022-10-16T01:05:09;101295.00;;;12.69;100.00
56392;BME280;42289;53.582;9.714;2022-10-16T01:07:45;101298.66;;;12.65;100.00
56392;BME280;42289;53.582;9.714;2022-10-16T01:10:27;101303.91;;;12.63;100.00
56392;BME280;42289;53.582;9.714;2022-10-16T01:12:59;101311.31;;;12.52;100.00
56392;BME280;42289;53.582;9.714;2022-10-16T01:15:31;101305.13;;;12.54;100.00
56392;BME280;42289;53.582;9.714;2022-10-16T01:18:02;101309.84;;;12.44;100.00
56392;BME280;42289;53.582;9.714;2022-10-16T01:20:35;101303.97;;;12.39;100.00
56392;BME280;42289;53.582;9.714;2022-10-16T01:23:14;101294.97;;;12.47;100.00
56392;BME280;42289;53.582;9.714;2022-10-16T01:25:59;101296.13;;;12.39;100.00
56392;BME280;42289;53.582;9.714;2022-10-16T01:28:36;101296.13;;;12.39;100.00
56392;BME280;42289;53.582;9.714;2022-10-16T01:31:05;101291.75;;;12.40;100.00
56392;BME280;42289;53.582;9.714;2022-10-16T01:33:36;101283.81;;;12.43;100.00
56392;BME280;42289;53.582;9.714;2022-10-16T01:36:10;101279.63;;;12.39;100.00
56392;BME280;42289;53.582;9.714;2022-10-16T01:38:39;101280.50;;;12.39;100.00
56392;BME280;42289;53.582;9.714;2022-10-16T01:41:09;101267.63;;;12.35;100.00
56392;BME280;42289;53.582;9.714;2022-10-16T01:43:40;101277.44;;;12.28;100.00
56392;BME280;42289;53.582;9.714;2022-10-16T01:46:10;101291.97;;;12.11;100.00
56392;BME280;42289;53.582;9.714;2022-10-16T01:48:37;101312.69;;;12.15;100.00
56392;BME280;42289;53.582;9.714;2022-10-16T01:51:07;101311.84;;;12.14;100.00
56392;BME280;42289;53.582;9.714;2022-10-16T01:53:36;101319.72;;;12.13;100.00
56392;BME280;42289;53.582;9.714;2022-10-16T01:56:05;101306.56;;;12.16;100.00
56392;BME280;42289;53.582;9.714;2022-10-16T01:58:35;101310.00;;;12.18;100.00
56392;BME280;42289;53.582;9.714;2022-10-16T02:01:08;101287.84;;;12.28;100.00
56392;BME280;42289;53.582;9.714;2022-10-16T02:03:37;101282.56;;;12.31;100.00
56392;BME280;42289;53.582;9.714;2022-10-16T02:06:06;101274.28;;;12.20;100.00
56392;BME280;42289;53.582;9.714;2022-10-16T02:08:34;101275.38;;;12.14;100.00
56392;BME280;42289;53.582;9.714;2022-10-16T02:11:02;101273.59;;;12.15;100.00
56392;BME280;42289;53.582;9.714;2022-10-16T02:13:32;101272.69;;;12.16;100.00
56392;BME280;42289;53.582;9.714;2022-10-16T02:16:16;101273.03;;;12.06;100.00
56392;BME280;42289;53.582;9.714;2022-10-16T02:19:18;101279.91;;;12.09;100.00
56392;BME280;42289;53.582;9.714;2022-10-16T02:22:01;101283.59;;;12.03;100.00
56392;BME280;42289;53.582;9.714;2022-10-16T02:35:21;101291.69;;;11.95;100.00
56392;BME280;42289;53.582;9.714;2022-10-16T02:38:18;101268.25;;;11.94;100.00
56392;BME280;42289;53.582;9.714;2022-10-16T02:45:23;101255.22;;;11.94;100.00
56392;BME280;42289;53.582;9.714;2022-10-16T02:48:06;101271.50;;;11.77;100.00
56392;BME280;42289;53.582;9.714;2022-10-16T02:51:02;101273.63;;;11.66;100.00
56392;BME280;42289;53.582;9.714;2022-10-16T02:54:10;101278.00;;;11.89;100.00
56392;BME280;42289;53.582;9.714;2022-10-16T02:56:38;101279.47;;;11.72;100.00
56392;BME280;42289;53.582;9.714;2022-10-16T02:59:35;101263.72;;;11.75;100.00
56392;BME280;42289;53.582;9.714;2022-10-16T03:02:35;101260.97;;;11.80;100.00
56392;BME280;42289;53.582;9.714;2022-10-16T03:05:32;101258.41;;;11.78;100.00
56392;BME280;42289;53.582;9.714;2022-10-16T03:08:07;101262.38;;;11.65;100.00
56392;BME280;42289;53.582;9.714;2022-10-16T03:11:16;101238.13;;;11.63;100.00
56392;BME280;42289;53.582;9.714;2022-10-16T03:14:08;101264.06;;;11.66;100.00
56392;BME280;42289;53.582;9.714;2022-10-16T04:00:03;101346.97;;;11.26;100.00
56392;BME280;42289;53.582;9.714;2022-10-16T04:20:20;101395.88;;;11.17;100.00
56392;BME280;42289;53.582;9.714;2022-10-16T04:26:25;101396.66;;;11.19;100.00
56392;BME280;42289;53.582;9.714;2022-10-16T04:49:31;101413.34;;;11.13;100.00
56392;BME280;42289;53.582;9.714;2022-10-16T04:56:25;101420.19;;;11.16;100.00
56392;BME280;42289;53.582;9.714;2022-10-16T04:59:25;101420.97;;;11.19;100.00
56392;BME280;42289;53.582;9.714;2022-10-16T05:19:58;101448.72;;;11.19;100.00
56392;BME280;42289;53.582;9.714;2022-10-16T05:22:49;101461.44;;;11.28;100.00
56392;BME280;42289;53.582;9.714;2022-10-16T05:25:56;101472.13;;;11.19;100.00
56392;BME280;42289;53.582;9.714;2022-10-16T05:35:52;101486.81;;;11.21;100.00
56392;BME280;42289;53.582;9.714;2022-10-16T05:38:59;101472.63;;;11.32;100.00
56392;BME280;42289;53.582;9.714;2022-10-16T05:42:17;101476.28;;;11.26;100.00
56392;BME280;42289;53.582;9.714;2022-10-16T05:45:26;101470.97;;;11.29;100.00
56392;BME280;42289;53.582;9.714;2022-10-16T05:51:21;101487.53;;;11.26;100.00
56392;BME280;42289;53.582;9.714;2022-10-16T05:55:39;101489.91;;;11.34;100.00
56392;BME280;42289;53.582;9.714;2022-10-16T06:02:00;101494.38;;;11.29;100.00
56392;BME280;42289;53.582;9.714;2022-10-16T06:11:34;101515.41;;;11.23;100.00
56392;BME280;42289;53.582;9.714;2022-10-16T06:21:50;101521.31;;;11.28;100.00
56392;BME280;42289;53.582;9.714;2022-10-16T06:27:07;101529.84;;;11.33;100.00
56392;BME280;42289;53.582;9.714;2022-10-16T06:30:09;101544.84;;;11.25;100.00
56392;BME280;42289;53.582;9.714;2022-10-16T06:42:51;101557.88;;;11.53;100.00
56392;BME280;42289;53.582;9.714;2022-10-16T06:45:35;101562.13;;;11.56;100.00
56392;BME280;42289;53.582;9.714;2022-10-16T06:48:19;101558.53;;;11.60;100.00
56392;BME280;42289;53.582;9.714;2022-10-16T06:54:30;101560.56;;;11.78;100.00
56392;BME280;42289;53.582;9.714;2022-10-16T06:57:03;101560.28;;;11.88;100.00
56392;BME280;42289;53.582;9.714;2022-10-16T06:59:39;101552.22;;;11.95;100.00
56392;BME280;42289;53.582;9.714;2022-10-16T07:02:34;101551.78;;;12.09;100.00
56392;BME280;42289;53.582;9.714;2022-10-16T07:06:30;101538.84;;;12.06;100.00
56392;BME280;42289;53.582;9.714;2022-10-16T07:09:38;101537.09;;;12.07;100.00
56392;BME280;42289;53.582;9.714;2022-10-16T07:12:30;101540.44;;;12.10;100.00
56392;BME280;42289;53.582;9.714;2022-10-16T07:18:46;101542.91;;;12.15;100.00
56392;BME280;42289;53.582;9.714;2022-10-16T07:24:54;101565.66;;;12.37;100.00
56392;BME280;42289;53.582;9.714;2022-10-16T07:30:05;101581.44;;;12.57;100.00
56392;BME280;42289;53.582;9.714;2022-10-16T07:35:08;101551.84;;;12.84;100.00
56392;BME280;42289;53.582;9.714;2022-10-16T07:38:23;101532.31;;;12.94;100.00
56392;BME280;42289;53.582;9.714;2022-10-16T07:44:45;101505.94;;;13.02;100.00
56392;BME280;42289;53.582;9.714;2022-10-16T07:51:10;101518.44;;;12.93;100.00
56392;BME280;42289;53.582;9.714;2022-10-16T07:59:32;101520.78;;;13.00;100.00
56392;BME280;42289;53.582;9.714;2022-10-16T08:00:17;101539.81;;;13.03;100.00
56392;BME280;42289;53.582;9.714;2022-10-16T08:02:58;101551.56;;;13.15;100.00
56392;BME280;42289;53.582;9.714;2022-10-16T08:05:35;101552.31;;;13.19;100.00
56392;BME280;42289;53.582;9.714;2022-10-16T08:08:13;101559.25;;;13.18;100.00
56392;BME280;42289;53.582;9.714;2022-10-16T08:11:00;101556.38;;;13.26;100.00
56392;BME280;42289;53.582;9.714;2022-10-16T08:13:48;101557.41;;;13.22;100.00
56392;BME280;42289;53.582;9.714;2022-10-16T08:16:31;101542.88;;;13.38;100.00
56392;BME280;42289;53.582;9.714;2022-10-16T08:18:57;101546.56;;;13.55;100.00
56392;BME280;42289;53.582;9.714;2022-10-16T08:21:24;101534.03;;;13.65;100.00
56392;BME280;42289;53.582;9.714;2022-10-16T08:23:53;101524.66;;;13.81;100.00
56392;BME280;42289;53.582;9.714;2022-10-16T08:26:19;101505.84;;;13.93;100.00
56392;BME280;42289;53.582;9.714;2022-10-16T08:28:49;101492.56;;;13.98;100.00
56392;BME280;42289;53.582;9.714;2022-10-16T08:31:16;101474.69;;;14.09;100.00
56392;BME280;42289;53.582;9.714;2022-10-16T08:33:43;101433.69;;;14.10;100.00
56392;BME280;42289;53.582;9.714;2022-10-16T08:36:12;101425.91;;;14.08;100.00
56392;BME280;42289;53.582;9.714;2022-10-16T08:38:39;101400.00;;;14.04;100.00
56392;BME280;42289;53.582;9.714;2022-10-16T08:44:24;101395.59;;;14.04;100.00
56392;BME280;42289;53.582;9.714;2022-10-16T08:46:59;101393.06;;;14.03;100.00
56392;BME280;42289;53.582;9.714;2022-10-16T08:49:29;101402.63;;;14.02;100.00
56392;BME280;42289;53.582;9.714;2022-10-16T08:51:56;101429.66;;;14.03;100.00
56392;BME280;42289;53.582;9.714;2022-10-16T08:54:28;101435.91;;;14.19;100.00
56392;BME280;42289;53.582;9.714;2022-10-16T08:57:04;101414.81;;;14.24;100.00
56392;BME280;42289;53.582;9.714;2022-10-16T08:59:33;101384.41;;;14.40;100.00
56392;BME280;42289;53.582;9.714;2022-10-16T09:01:59;101371.91;;;14.47;100.00
56392;BME280;42289;53.582;9.714;2022-10-16T09:04:47;101340.69;;;14.61;100.00
56392;BME280;42289;53.582;9.714;2022-10-16T09:07:20;101342.22;;;14.67;100.00
56392;BME280;42289;53.582;9.714;2022-10-16T09:09:58;101349.63;;;14.76;100.00
56392;BME280;42289;53.582;9.714;2022-10-16T09:12:33;101323.16;;;14.83;100.00
56392;BME280;42289;53.582;9.714;2022-10-16T09:15:13;101296.63;;;14.90;100.00
56392;BME280;42289;53.582;9.714;2022-10-16T09:17:49;101296.53;;;14.92;100.00
56392;BME280;42289;53.582;9.714;2022-10-16T09:20:42;101282.22;;;14.99;100.00
56392;BME280;42289;53.582;9.714;2022-10-16T09:23:16;101275.53;;;15.11;100.00
56392;BME280;42289;53.582;9.714;2022-10-16T09:25:46;101231.72;;;15.14;100.00
56392;BME280;42289;53.582;9.714;2022-10-16T09:28:16;101217.75;;;15.14;100.00
56392;BME280;42289;53.582;9.714;2022-10-16T09:30:43;101186.59;;;14.92;100.00
56392;BME280;42289;53.582;9.714;2022-10-16T09:33:11;101206.75;;;14.90;100.00
56392;BME280;42289;53.582;9.714;2022-10-16T09:35:40;101180.03;;;14.83;100.00
56392;BME280;42289;53.582;9.714;2022-10-16T09:38:08;101207.25;;;14.80;100.00
56392;BME280;42289;53.582;9.714;2022-10-16T09:40:36;101214.59;;;14.72;100.00
56392;BME280;42289;53.582;9.714;2022-10-16T09:43:17;101192.91;;;14.70;100.00
56392;BME280;42289;53.582;9.714;2022-10-16T09:45:54;101203.53;;;14.67;100.00
56392;BME280;42289;53.582;9.714;2022-10-16T09:48:21;101188.59;;;14.69;100.00
56392;BME280;42289;53.582;9.714;2022-10-16T09:50:55;101208.78;;;14.67;100.00
56392;BME280;42289;53.582;9.714;2022-10-16T09:53:23;101208.28;;;14.76;100.00
56392;BME280;42289;53.582;9.714;2022-10-16T09:55:53;101203.59;;;14.83;100.00
56392;BME280;42289;53.582;9.714;2022-10-16T09:58:23;101204.09;;;14.91;100.00
56392;BME280;42289;53.582;9.714;2022-10-16T10:00:51;101193.28;;;14.97;100.00
56392;BME280;42289;53.582;9.714;2022-10-16T10:03:38;101163.00;;;15.09;100.00
56392;BME280;42289;53.582;9.714;2022-10-16T10:06:18;101185.97;;;15.04;100.00
56392;BME280;42289;53.582;9.714;2022-10-16T10:08:56;101169.63;;;14.99;100.00
56392;BME280;42289;53.582;9.714;2022-10-16T10:11:39;101161.69;;;15.01;100.00
56392;BME280;42289;53.582;9.714;2022-10-16T10:14:16;101154.69;;;15.19;100.00
56392;BME280;42289;53.582;9.714;2022-10-16T10:16:42;101117.59;;;15.26;100.00
56392;BME280;42289;53.582;9.714;2022-10-16T10:19:14;101091.16;;;15.31;100.00
56392;BME280;42289;53.582;9.714;2022-10-16T10:21:40;101087.75;;;15.29;100.00
56392;BME280;42289;53.582;9.714;2022-10-16T10:24:10;101088.63;;;15.29;100.00
56392;BME280;42289;53.582;9.714;2022-10-16T10:26:37;101098.94;;;15.48;100.00
56392;BME280;42289;53.582;9.714;2022-10-16T10:29:08;101111.38;;;15.61;100.00
56392;BME280;42289;53.582;9.714;2022-10-16T10:31:45;101063.09;;;15.65;100.00
56392;BME280;42289;53.582;9.714;2022-10-16T10:34:25;101024.03;;;15.76;100.00
56392;BME280;42289;53.582;9.714;2022-10-16T10:36:56;101016.69;;;15.83;100.00
56392;BME280;42289;53.582;9.714;2022-10-16T10:39:30;101014.63;;;15.72;100.00
56392;BME280;42289;53.582;9.714;2022-10-16T10:42:21;101021.84;;;15.69;100.00
56392;BME280;42289;53.582;9.714;2022-10-16T10:45:00;101032.84;;;15.59;100.00
56392;BME280;42289;53.582;9.714;2022-10-16T10:47:44;101022.09;;;15.64;100.00
56392;BME280;42289;53.582;9.714;2022-10-16T10:50:19;101027.91;;;15.69;100.00
56392;BME280;42289;53.582;9.714;2022-10-16T10:52:56;100993.25;;;15.80;100.00
56392;BME280;42289;53.582;9.714;2022-10-16T10:55:33;100966.69;;;15.86;100.00
56392;BME280;42289;53.582;9.714;2022-10-16T10:58:20;100934.59;;;15.97;100.00
56392;BME280;42289;53.582;9.714;2022-10-16T11:00:56;100945.13;;;16.11;100.00
56392;BME280;42289;53.582;9.714;2022-10-16T11:03:37;100957.81;;;16.03;100.00
56392;BME280;42289;53.582;9.714;2022-10-16T11:06:12;100920.78;;;16.24;100.00
56392;BME280;42289;53.582;9.714;2022-10-16T11:08:43;100893.41;;;16.28;100.00
56392;BME280;42289;53.582;9.714;2022-10-16T11:11:17;100890.97;;;16.39;100.00
56392;BME280;42289;53.582;9.714;2022-10-16T11:13:53;100915.50;;;16.38;100.00
56392;BME280;42289;53.582;9.714;2022-10-16T11:16:26;100905.69;;;16.42;100.00
56392;BME280;42289;53.582;9.714;2022-10-16T11:18:59;100881.13;;;16.28;100.00
56392;BME280;42289;53.582;9.714;2022-10-16T11:21:40;100930.09;;;15.99;100.00
56392;BME280;42289;53.582;9.714;2022-10-16T11:24:15;100943.91;;;16.17;100.00
56392;BME280;42289;53.582;9.714;2022-10-16T11:26:43;100957.50;;;16.24;100.00
56392;BME280;42289;53.582;9.714;2022-10-16T11:29:16;100942.22;;;16.16;100.00
56392;BME280;42289;53.582;9.714;2022-10-16T11:31:48;100924.34;;;16.37;100.00
56392;BME280;42289;53.582;9.714;2022-10-16T11:34:23;100931.81;;;16.29;100.00
56392;BME280;42289;53.582;9.714;2022-10-16T11:36:53;100927.63;;;16.26;100.00
56392;BME280;42289;53.582;9.714;2022-10-16T11:39:25;100886.56;;;16.40;100.00
56392;BME280;42289;53.582;9.714;2022-10-16T11:41:54;100889.19;;;16.25;100.00
56392;BME280;42289;53.582;9.714;2022-10-16T11:44:36;100894.25;;;16.28;100.00
56392;BME280;42289;53.582;9.714;2022-10-16T11:47:19;100920.00;;;16.07;100.00
56392;BME280;42289;53.582;9.714;2022-10-16T11:49:53;100937.50;;;16.07;100.00
56392;BME280;42289;53.582;9.714;2022-10-16T11:52:26;100911.03;;;16.11;100.00
56392;BME280;42289;53.582;9.714;2022-10-16T11:54:57;100892.66;;;16.26;100.00
56392;BME280;42289;53.582;9.714;2022-10-16T11:57:27;100909.44;;;16.09;100.00
56392;BME280;42289;53.582;9.714;2022-10-16T11:59:58;100936.69;;;16.06;100.00
56392;BME280;42289;53.582;9.714;2022-10-16T12:02:32;100929.19;;;16.14;100.00
56392;BME280;42289;53.582;9.714;2022-10-16T12:05:13;100960.53;;;16.02;100.00
56392;BME280;42289;53.582;9.714;2022-10-16T12:07:46;100985.63;;;15.91;100.00
56392;BME280;42289;53.582;9.714;2022-10-16T12:10:20;100959.31;;;15.93;100.00
56392;BME280;42289;53.582;9.714;2022-10-16T12:12:47;100990.97;;;15.74;100.00
56392;BME280;42289;53.582;9.714;2022-10-16T12:15:20;100936.59;;;15.77;100.00
56392;BME280;42289;53.582;9.714;2022-10-16T12:17:47;100989.13;;;15.60;100.00
56392;BME280;42289;53.582;9.714;2022-10-16T12:20:27;100973.19;;;15.79;100.00
56392;BME280;42289;53.582;9.714;2022-10-16T12:22:58;101007.63;;;15.73;100.00
56392;BME280;42289;53.582;9.714;2022-10-16T12:25:29;100951.81;;;15.87;100.00
56392;BME280;42289;53.582;9.714;2022-10-16T12:27:57;100991.91;;;15.73;100.00
56392;BME280;42289;53.582;9.714;2022-10-16T12:30:27;100937.72;;;16.04;100.00
56392;BME280;42289;53.582;9.714;2022-10-16T12:32:55;100953.00;;;15.81;100.00
56392;BME280;42289;53.582;9.714;2022-10-16T12:35:24;101013.38;;;15.63;100.00
56392;BME280;42289;53.582;9.714;2022-10-16T12:37:53;101010.69;;;15.65;100.00
56392;BME280;42289;53.582;9.714;2022-10-16T12:40:27;101015.34;;;15.60;100.00
56392;BME280;42289;53.582;9.714;2022-10-16T12:42:54;101013.41;;;15.47;100.00
56392;BME280;42289;53.582;9.714;2022-10-16T12:45:26;101013.06;;;15.54;100.00
56392;BME280;42289;53.582;9.714;2022-10-16T12:47:55;101040.38;;;15.50;100.00
56392;BME280;42289;53.582;9.714;2022-10-16T12:50:28;101051.88;;;15.47;100.00
56392;BME280;42289;53.582;9.714;2022-10-16T12:52:57;100997.00;;;15.60;100.00
56392;BME280;42289;53.582;9.714;2022-10-16T12:55:24;100991.50;;;15.64;100.00
56392;BME280;42289;53.582;9.714;2022-10-16T12:58:06;101011.44;;;15.67;100.00
56392;BME280;42289;53.582;9.714;2022-10-16T13:00:42;101037.06;;;15.62;100.00
56392;BME280;42289;53.582;9.714;2022-10-16T13:03:35;101115.34;;;15.36;100.00
56392;BME280;42289;53.582;9.714;2022-10-16T13:06:15;101102.16;;;15.38;100.00
56392;BME280;42289;53.582;9.714;2022-10-16T13:09:02;101159.09;;;15.34;100.00
56392;BME280;42289;53.582;9.714;2022-10-16T13:11:48;101114.16;;;15.42;100.00
56392;BME280;42289;53.582;9.714;2022-10-16T13:14:29;101134.41;;;15.38;100.00
56392;BME280;42289;53.582;9.714;2022-10-16T13:17:05;101106.97;;;15.45;100.00
56392;BME280;42289;53.582;9.714;2022-10-16T13:19:41;101008.47;;;15.73;100.00
56392;BME280;42289;53.582;9.714;2022-10-16T13:22:14;101013.38;;;15.63;100.00
56392;BME280;42289;53.582;9.714;2022-10-16T13:24:54;101075.59;;;15.44;100.00
56392;BME280;42289;53.582;9.714;2022-10-16T13:27:31;101086.03;;;15.45;100.00
56392;BME280;42289;53.582;9.714;2022-10-16T13:30:02;101068.53;;;15.46;100.00
56392;BME280;42289;53.582;9.714;2022-10-16T13:32:36;101101.47;;;15.34;100.00
56392;BME280;42289;53.582;9.714;2022-10-16T13:35:02;101061.94;;;15.39;100.00
56392;BME280;42289;53.582;9.714;2022-10-16T13:37:29;101069.88;;;15.37;100.00
56392;BME280;42289;53.582;9.714;2022-10-16T13:40:09;100982.47;;;15.54;100.00
56392;BME280;42289;53.582;9.714;2022-10-16T13:42:43;101011.28;;;15.38;100.00
56392;BME280;42289;53.582;9.714;2022-10-16T13:45:18;101043.09;;;15.32;100.00
56392;BME280;42289;53.582;9.714;2022-10-16T13:47:44;101029.03;;;15.33;100.00
56392;BME280;42289;53.582;9.714;2022-10-16T13:50:13;101075.19;;;15.20;100.00
56392;BME280;42289;53.582;9.714;2022-10-16T13:52:40;101067.16;;;15.23;100.00
56392;BME280;42289;53.582;9.714;2022-10-16T13:55:11;101082.34;;;15.16;100.00
56392;BME280;42289;53.582;9.714;2022-10-16T13:57:39;101087.78;;;15.13;100.00
56392;BME280;42289;53.582;9.714;2022-10-16T14:00:18;101086.91;;;15.12;100.00
56392;BME280;42289;53.582;9.714;2022-10-16T14:02:44;101079.13;;;15.11;100.00
56392;BME280;42289;53.582;9.714;2022-10-16T14:05:14;101073.97;;;15.09;100.00
56392;BME280;42289;53.582;9.714;2022-10-16T14:07:41;101080.13;;;15.08;100.00
56392;BME280;42289;53.582;9.714;2022-10-16T14:10:20;101088.50;;;15.15;100.00
56392;BME280;42289;53.582;9.714;2022-10-16T14:12:54;101089.22;;;15.19;100.00
56392;BME280;42289;53.582;9.714;2022-10-16T14:15:21;101080.25;;;15.23;100.00
56392;BME280;42289;53.582;9.714;2022-10-16T14:17:50;101051.63;;;15.20;100.00
56392;BME280;42289;53.582;9.714;2022-10-16T14:20:18;101078.03;;;15.15;100.00
56392;BME280;42289;53.582;9.714;2022-10-16T14:22:46;101095.53;;;15.14;100.00
56392;BME280;42289;53.582;9.714;2022-10-16T14:25:23;101067.41;;;15.18;100.00
56392;BME280;42289;53.582;9.714;2022-10-16T14:28:04;101057.59;;;15.22;100.00
56392;BME280;42289;53.582;9.714;2022-10-16T14:30:50;101081.34;;;15.19;100.00
56392;BME280;42289;53.582;9.714;2022-10-16T14:33:23;101093.66;;;15.17;100.00
56392;BME280;42289;53.582;9.714;2022-10-16T14:36:02;101099.16;;;15.12;100.00
56392;BME280;42289;53.582;9.714;2022-10-16T14:38:29;101081.00;;;15.09;100.00
56392;BME280;42289;53.582;9.714;2022-10-16T14:40:59;101056.41;;;15.11;100.00
56392;BME280;42289;53.582;9.714;2022-10-16T14:43:31;101047.88;;;15.08;100.00
56392;BME280;42289;53.582;9.714;2022-10-16T14:45:59;101060.59;;;14.98;100.00
56392;BME280;42289;53.582;9.714;2022-10-16T14:48:26;101055.22;;;15.01;100.00
56392;BME280;42289;53.582;9.714;2022-10-16T14:50:52;101059.84;;;14.96;100.00
56392;BME280;42289;53.582;9.714;2022-10-16T14:53:19;101061.38;;;15.00;100.00
56392;BME280;42289;53.582;9.714;2022-10-16T14:55:45;101059.38;;;15.05;100.00
56392;BME280;42289;53.582;9.714;2022-10-16T14:58:15;101056.56;;;15.08;100.00
56392;BME280;42289;53.582;9.714;2022-10-16T15:00:42;101072.47;;;15.05;100.00
56392;BME280;42289;53.582;9.714;2022-10-16T15:03:09;101064.53;;;15.07;100.00
56392;BME280;42289;53.582;9.714;2022-10-16T15:05:36;101071.69;;;15.03;100.00
56392;BME280;42289;53.582;9.714;2022-10-16T15:08:02;101061.22;;;15.03;100.00
56392;BME280;42289;53.582;9.714;2022-10-16T15:10:30;101074.78;;;14.94;100.00
56392;BME280;42289;53.582;9.714;2022-10-16T15:12:57;101067.53;;;14.99;100.00
56392;BME280;42289;53.582;9.714;2022-10-16T15:15:33;101065.94;;;14.96;100.00
56392;BME280;42289;53.582;9.714;2022-10-16T15:18:01;101062.38;;;14.97;100.00
56392;BME280;42289;53.582;9.714;2022-10-16T15:20:29;101065.66;;;14.85;100.00
56392;BME280;42289;53.582;9.714;2022-10-16T15:22:56;101079.34;;;14.90;100.00
56392;BME280;42289;53.582;9.714;2022-10-16T15:25:31;101081.63;;;14.80;100.00
56392;BME280;42289;53.582;9.714;2022-10-16T15:27:58;101075.91;;;14.72;100.00
56392;BME280;42289;53.582;9.714;2022-10-16T15:30:24;101079.53;;;14.70;100.00
56392;BME280;42289;53.582;9.714;2022-10-16T15:32:53;101084.28;;;14.61;100.00
56392;BME280;42289;53.582;9.714;2022-10-16T15:35:19;101094.16;;;14.56;100.00
56392;BME280;42289;53.582;9.714;2022-10-16T15:37:46;101089.06;;;14.53;100.00
56392;BME280;42289;53.582;9.714;2022-10-16T15:40:14;101098.16;;;14.46;100.00
56392;BME280;42289;53.582;9.714;2022-10-16T15:42:40;101103.59;;;14.41;100.00
56392;BME280;42289;53.582;9.714;2022-10-16T15:45:08;101106.28;;;14.40;100.00
56392;BME280;42289;53.582;9.714;2022-10-16T15:47:35;101111.78;;;14.35;100.00
56392;BME280;42289;53.582;9.714;2022-10-16T15:50:03;101109.78;;;14.23;100.00
56392;BME280;42289;53.582;9.714;2022-10-16T15:52:30;101110.53;;;14.25;100.00
56392;BME280;42289;53.582;9.714;2022-10-16T15:54:57;101119.13;;;14.09;100.00
56392;BME280;42289;53.582;9.714;2022-10-16T15:57:23;101118.88;;;13.96;100.00
56392;BME280;42289;53.582;9.714;2022-10-16T15:59:50;101131.06;;;13.78;100.00
56392;BME280;42289;53.582;9.714;2022-10-16T16:02:16;101162.00;;;13.69;100.00
56392;BME280;42289;53.582;9.714;2022-10-16T16:04:43;101199.97;;;13.57;100.00
56392;BME280;42289;53.582;9.714;2022-10-16T16:07:10;101220.63;;;13.42;100.00
56392;BME280;42289;53.582;9.714;2022-10-16T16:09:37;101225.28;;;13.34;100.00
56392;BME280;42289;53.582;9.714;2022-10-16T16:12:04;101241.34;;;13.25;100.00
56392;BME280;42289;53.582;9.714;2022-10-16T16:14:30;101281.50;;;13.22;100.00
56392;BME280;42289;53.582;9.714;2022-10-16T16:16:57;101297.69;;;13.10;100.00
56392;BME280;42289;53.582;9.714;2022-10-16T16:19:23;101327.56;;;13.03;100.00
56392;BME280;42289;53.582;9.714;2022-10-16T16:21:50;101346.13;;;12.95;100.00
56392;BME280;42289;53.582;9.714;2022-10-16T16:24:18;101372.53;;;12.87;100.00
56392;BME280;42289;53.582;9.714;2022-10-16T16:26:44;101378.84;;;12.82;100.00
56392;BME280;42289;53.582;9.714;2022-10-16T16:29:11;101398.81;;;12.83;100.00
56392;BME280;42289;53.582;9.714;2022-10-16T16:31:39;101378.78;;;12.83;100.00
56392;BME280;42289;53.582;9.714;2022-10-16T16:34:06;101382.69;;;12.71;100.00